createdAt,value
2023-11-08T00:01:05.333Z,998.9
2023-11-08T00:02:35.853Z,998.9
2023-11-08T00:04:06.358Z,998.9
2023-11-08T00:05:36.873Z,999
2023-11-08T00:07:07.387Z,998.9
2023-11-08T00:08:37.894Z,998.9
2023-11-08T00:10:08.409Z,999
2023-11-08T00:11:23.107Z,999
2023-11-08T00:12:38.225Z,999
2023-11-08T00:14:08.738Z,998.9
2023-11-08T00:15:39.257Z,998.9
2023-11-08T00:17:09.767Z,998.9
2023-11-08T00:18:40.278Z,998.9
2023-11-08T00:20:10.790Z,999
2023-11-08T00:21:41.302Z,999
2023-11-08T00:23:11.818Z,999
2023-11-08T00:24:42.330Z,999
2023-11-08T00:26:12.841Z,999
2023-11-08T00:27:27.969Z,999
2023-11-08T00:28:43.097Z,999
2023-11-08T00:30:13.608Z,999
2023-11-08T00:31:44.116Z,999
2023-11-08T00:33:14.631Z,999
2023-11-08T00:34:45.147Z,999
2023-11-08T00:36:15.655Z,999
2023-11-08T00:37:46.175Z,999
2023-11-08T00:39:16.681Z,999
2023-11-08T00:40:47.194Z,999
2023-11-08T00:42:17.712Z,999
2023-11-08T00:43:32.839Z,999
2023-11-08T00:44:47.958Z,999
2023-11-08T00:46:18.479Z,999
2023-11-08T00:47:48.984Z,999
2023-11-08T00:49:19.502Z,999
2023-11-08T00:50:50.014Z,999
2023-11-08T00:52:20.527Z,999
2023-11-08T00:53:51.039Z,999
2023-11-08T00:55:21.552Z,999
2023-11-08T00:56:52.061Z,999
2023-11-08T00:58:22.574Z,999
2023-11-08T00:59:37.706Z,999
2023-11-08T01:00:52.823Z,999
2023-11-08T01:02:23.342Z,998.9
2023-11-08T01:03:53.857Z,998.9
2023-11-08T01:05:24.367Z,998.9
2023-11-08T01:06:54.881Z,998.9
2023-11-08T01:08:25.392Z,998.9
2023-11-08T01:09:55.903Z,998.9
2023-11-08T01:11:26.416Z,998.9
2023-11-08T01:12:56.924Z,998.9
2023-11-08T01:14:27.441Z,998.9
2023-11-08T01:15:42.562Z,998.9
2023-11-08T01:16:57.688Z,998.9
2023-11-08T01:18:28.210Z,998.9
2023-11-08T01:19:58.720Z,998.9
2023-11-08T01:21:29.232Z,998.9
2023-11-08T01:22:59.741Z,998.8
2023-11-08T01:24:30.255Z,998.9
2023-11-08T01:26:00.768Z,998.8
2023-11-08T01:27:31.276Z,998.8
2023-11-08T01:29:01.789Z,998.8
2023-11-08T01:30:32.308Z,998.8
2023-11-08T01:31:47.435Z,998.8
2023-11-08T01:33:02.559Z,998.9
2023-11-08T01:34:33.068Z,998.9
2023-11-08T01:36:03.588Z,998.8
2023-11-08T01:37:34.094Z,998.8
2023-11-08T01:39:04.613Z,998.8
2023-11-08T01:40:35.122Z,998.8
2023-11-08T01:42:05.637Z,998.8
2023-11-08T01:43:36.143Z,998.8
2023-11-08T01:45:06.658Z,998.8
2023-11-08T01:46:37.169Z,998.8
2023-11-08T01:47:52.297Z,998.8
2023-11-08T01:49:06.990Z,998.8
2023-11-08T01:50:37.503Z,998.8
2023-11-08T01:52:08.018Z,998.8
2023-11-08T01:53:38.529Z,998.8
2023-11-08T01:55:09.035Z,998.8
2023-11-08T01:56:39.553Z,998.8
2023-11-08T01:58:10.063Z,998.8
2023-11-08T01:59:40.581Z,998.8
2023-11-08T02:01:11.088Z,998.8
2023-11-08T02:03:56.732Z,998.8
2023-11-08T02:05:11.861Z,998.8
2023-11-08T02:06:42.373Z,998.8
2023-11-08T02:08:12.880Z,998.8
2023-11-08T02:09:43.398Z,998.8
2023-11-08T02:11:13.909Z,998.8
2023-11-08T02:12:44.419Z,998.8
2023-11-08T02:14:14.937Z,998.8
2023-11-08T02:15:45.440Z,998.8
2023-11-08T02:17:15.960Z,998.8
2023-11-08T02:18:46.472Z,998.8
2023-11-08T02:20:01.593Z,998.8
2023-11-08T02:21:16.720Z,998.8
2023-11-08T02:22:47.234Z,998.8
2023-11-08T02:24:17.751Z,998.8
2023-11-08T02:25:48.259Z,998.8
2023-11-08T02:27:18.776Z,998.8
2023-11-08T02:28:49.284Z,998.8
2023-11-08T02:30:19.800Z,998.8
2023-11-08T02:31:50.311Z,998.8
2023-11-08T02:33:20.823Z,998.8
2023-11-08T02:34:51.331Z,998.8
2023-11-08T02:36:06.465Z,998.8
2023-11-08T02:37:21.588Z,998.8
2023-11-08T02:38:52.098Z,998.8
2023-11-08T02:40:22.614Z,998.9
2023-11-08T02:41:53.128Z,998.8
2023-11-08T02:43:23.635Z,998.9
2023-11-08T02:44:54.149Z,998.9
2023-11-08T02:46:24.667Z,998.9
2023-11-08T02:47:55.181Z,998.8
2023-11-08T02:49:25.688Z,998.8
2023-11-08T02:50:56.203Z,998.9
2023-11-08T02:52:11.331Z,998.9
2023-11-08T02:53:26.458Z,998.9
2023-11-08T02:54:56.964Z,998.9
2023-11-08T02:56:27.478Z,998.9
2023-11-08T02:57:57.991Z,998.8
2023-11-08T02:59:28.510Z,998.9
2023-11-08T03:00:59.016Z,998.8
2023-11-08T03:02:29.533Z,998.8
2023-11-08T03:04:00.044Z,998.8
2023-11-08T03:05:30.552Z,998.9
2023-11-08T03:07:01.066Z,998.8
2023-11-08T03:08:16.196Z,998.8
2023-11-08T03:09:31.319Z,998.8
2023-11-08T03:11:01.833Z,998.9
2023-11-08T03:12:32.347Z,998.8
2023-11-08T03:14:02.858Z,998.8
2023-11-08T03:15:33.377Z,998.8
2023-11-08T03:17:03.889Z,998.8
2023-11-08T03:20:04.906Z,998.8
2023-11-08T03:21:35.422Z,998.7
2023-11-08T03:23:05.939Z,998.7
2023-11-08T03:24:21.061Z,998.7
2023-11-08T03:25:36.189Z,998.7
2023-11-08T03:27:06.703Z,998.8
2023-11-08T03:28:37.217Z,998.8
2023-11-08T03:30:07.725Z,998.8
2023-11-08T03:33:08.752Z,998.8
2023-11-08T03:34:39.268Z,998.8
2023-11-08T03:36:09.781Z,998.8
2023-11-08T03:39:10.804Z,998.8
2023-11-08T03:40:25.930Z,998.8
2023-11-08T03:43:11.565Z,998.8
2023-11-08T03:46:12.591Z,998.9
2023-11-08T03:49:13.623Z,998.9
2023-11-08T03:50:44.217Z,998.9
2023-11-08T03:52:22.836Z,998.9
2023-11-08T03:53:53.350Z,999
2023-11-08T03:55:23.858Z,999
2023-11-08T03:56:38.988Z,999
2023-11-08T03:57:54.114Z,999
2023-11-08T03:59:24.629Z,999
2023-11-08T04:00:55.140Z,999
2023-11-08T04:02:25.649Z,999
2023-11-08T04:03:56.158Z,999
2023-11-08T04:05:26.756Z,999
2023-11-08T04:07:05.376Z,999
2023-11-08T04:08:35.888Z,999
2023-11-08T04:10:06.399Z,999
2023-11-08T04:11:36.906Z,999
2023-11-08T04:12:52.044Z,999
2023-11-08T04:14:07.171Z,999
2023-11-08T04:15:37.684Z,999
2023-11-08T04:17:08.190Z,999
2023-11-08T04:18:38.703Z,999
2023-11-08T04:20:09.219Z,999
2023-11-08T04:21:39.727Z,999
2023-11-08T04:23:10.238Z,999
2023-11-08T04:24:40.754Z,999
2023-11-08T04:27:41.781Z,998.9
2023-11-08T04:28:56.557Z,999
2023-11-08T04:30:11.677Z,998.9
2023-11-08T04:31:42.191Z,998.9
2023-11-08T04:33:12.705Z,998.9
2023-11-08T04:34:43.223Z,998.9
2023-11-08T04:36:13.729Z,999
2023-11-08T04:39:14.756Z,999
2023-11-08T04:40:45.268Z,998.9
2023-11-08T04:42:15.781Z,999
2023-11-08T04:43:46.298Z,999
2023-11-08T04:45:16.811Z,999
2023-11-08T04:46:31.932Z,999
2023-11-08T04:47:47.057Z,998.9
2023-11-08T04:49:17.570Z,998.9
2023-11-08T04:50:48.086Z,998.9
2023-11-08T04:52:18.593Z,998.9
2023-11-08T04:53:49.105Z,998.9
2023-11-08T04:55:19.623Z,998.9
2023-11-08T04:56:50.138Z,999
2023-11-08T04:58:20.649Z,999
2023-11-08T04:59:51.161Z,999
2023-11-08T05:01:21.669Z,999
2023-11-08T05:02:36.798Z,999
2023-11-08T05:03:51.922Z,999.1
2023-11-08T05:05:22.440Z,999.1
2023-11-08T05:06:52.949Z,999.1
2023-11-08T05:08:23.460Z,999.1
2023-11-08T05:09:53.970Z,999.1
2023-11-08T05:11:24.489Z,999
2023-11-08T05:12:55.003Z,999
2023-11-08T05:14:25.515Z,999
2023-11-08T05:15:56.022Z,999.1
2023-11-08T05:17:26.542Z,999
2023-11-08T05:18:41.663Z,999
2023-11-08T05:19:56.786Z,999.1
2023-11-08T05:21:27.306Z,999
2023-11-08T05:22:57.815Z,999.1
2023-11-08T05:24:28.325Z,999
2023-11-08T05:25:58.839Z,999.1
2023-11-08T05:27:29.352Z,999.1
2023-11-08T05:28:59.870Z,999.1
2023-11-08T05:30:30.376Z,999.1
2023-11-08T05:32:00.891Z,999.1
2023-11-08T05:33:31.399Z,999.1
2023-11-08T05:34:46.531Z,999.1
2023-11-08T05:36:01.658Z,999.1
2023-11-08T05:37:32.166Z,999.1
2023-11-08T05:39:02.686Z,999.1
2023-11-08T05:40:33.193Z,999.1
2023-11-08T05:42:03.702Z,999.1
2023-11-08T05:43:34.222Z,999.1
2023-11-08T05:45:04.727Z,999.1
2023-11-08T05:46:35.242Z,999.2
2023-11-08T05:48:05.760Z,999.1
2023-11-08T05:49:36.271Z,999.2
2023-11-08T05:50:51.399Z,999.2
2023-11-08T05:52:06.484Z,999.2
2023-11-08T05:53:36.988Z,999.2
2023-11-08T05:55:07.506Z,999.2
2023-11-08T05:56:38.019Z,999.2
2023-11-08T05:58:08.525Z,999.2
2023-11-08T05:59:39.044Z,999.2
2023-11-08T06:01:09.560Z,999.3
2023-11-08T06:02:40.072Z,999.3
2023-11-08T06:04:10.582Z,999.3
2023-11-08T06:05:41.098Z,999.3
2023-11-08T06:06:56.169Z,999.3
2023-11-08T06:08:11.237Z,999.3
2023-11-08T06:09:41.746Z,999.4
2023-11-08T06:11:12.267Z,999.4
2023-11-08T06:12:42.777Z,999.4
2023-11-08T06:14:13.289Z,999.4
2023-11-08T06:15:43.796Z,999.4
2023-11-08T06:17:14.312Z,999.4
2023-11-08T06:18:44.829Z,999.4
2023-11-08T06:20:15.335Z,999.4
2023-11-08T06:21:45.854Z,999.4
2023-11-08T06:23:00.923Z,999.5
2023-11-08T06:24:15.992Z,999.5
2023-11-08T06:25:46.508Z,999.5
2023-11-08T06:27:17.017Z,999.5
2023-11-08T06:28:47.532Z,999.5
2023-11-08T06:30:18.050Z,999.5
2023-11-08T06:31:48.565Z,999.5
2023-11-08T06:33:19.077Z,999.6
2023-11-08T06:34:49.581Z,999.5
2023-11-08T06:36:20.101Z,999.6
2023-11-08T06:37:50.613Z,999.6
2023-11-08T06:39:05.680Z,999.6
2023-11-08T06:40:20.324Z,999.6
2023-11-08T06:41:50.832Z,999.7
2023-11-08T06:43:21.348Z,999.7
2023-11-08T06:44:51.861Z,999.7
2023-11-08T06:47:52.884Z,999.7
2023-11-08T06:49:23.394Z,999.7
2023-11-08T06:52:24.422Z,999.8
2023-11-08T06:53:54.932Z,999.7
2023-11-08T06:55:10.009Z,999.8
2023-11-08T06:56:25.081Z,999.8
2023-11-08T06:57:55.591Z,999.8
2023-11-08T06:59:26.101Z,999.9
2023-11-08T07:00:56.618Z,999.9
2023-11-08T07:02:27.132Z,999.9
2023-11-08T07:03:57.640Z,999.9
2023-11-08T07:06:58.667Z,999.9
2023-11-08T07:08:29.179Z,1000
2023-11-08T07:09:59.694Z,1000
2023-11-08T07:11:14.763Z,1000
2023-11-08T07:12:29.562Z,1000
2023-11-08T07:14:08.188Z,1000.1
2023-11-08T07:15:38.700Z,1000.1
2023-11-08T07:17:09.209Z,1000.1
2023-11-08T07:18:39.722Z,1000.2
2023-11-08T07:20:10.232Z,1000.2
2023-11-08T07:21:40.751Z,1000.1
2023-11-08T07:23:11.258Z,1000.2
2023-11-08T07:24:41.772Z,1000.2
2023-11-08T07:26:12.289Z,1000.2
2023-11-08T07:27:27.086Z,1000.2
2023-11-08T07:28:42.159Z,1000.2
2023-11-08T07:30:12.668Z,1000.2
2023-11-08T07:31:43.181Z,1000.2
2023-11-08T07:33:13.693Z,1000.2
2023-11-08T07:34:44.205Z,1000.2
2023-11-08T07:36:14.718Z,1000.2
2023-11-08T07:37:45.234Z,1000.2
2023-11-08T07:39:15.741Z,1000.2
2023-11-08T07:40:46.262Z,1000.3
2023-11-08T07:42:16.769Z,1000.3
2023-11-08T07:43:47.282Z,1000.3
2023-11-08T07:45:02.357Z,1000.3
2023-11-08T07:46:17.426Z,1000.3
2023-11-08T07:47:47.945Z,1000.3
2023-11-08T07:49:18.457Z,1000.3
2023-11-08T07:50:48.967Z,1000.3
2023-11-08T07:52:19.480Z,1000.4
2023-11-08T07:53:49.995Z,1000.4
2023-11-08T07:55:20.506Z,1000.4
2023-11-08T07:56:51.019Z,1000.4
2023-11-08T07:58:21.531Z,1000.4
2023-11-08T07:59:52.037Z,1000.3
2023-11-08T08:01:06.680Z,1000.3
2023-11-08T08:02:21.747Z,1000.3
2023-11-08T08:03:52.262Z,1000.3
2023-11-08T08:05:22.779Z,1000.3
2023-11-08T08:06:53.292Z,1000.3
2023-11-08T08:08:23.805Z,1000.4
2023-11-08T08:09:54.314Z,1000.4
2023-11-08T08:11:24.821Z,1000.4
2023-11-08T08:14:25.847Z,1000.4
2023-11-08T08:15:56.365Z,1000.4
2023-11-08T08:17:11.432Z,1000.4
2023-11-08T08:18:26.510Z,1000.4
2023-11-08T08:19:57.025Z,1000.4
2023-11-08T08:21:27.531Z,1000.4
2023-11-08T08:22:58.047Z,1000.4
2023-11-08T08:24:28.558Z,1000.4
2023-11-08T08:25:59.069Z,1000.4
2023-11-08T08:29:00.098Z,1000.5
2023-11-08T08:30:30.614Z,1000.5
2023-11-08T08:32:01.127Z,1000.5
2023-11-08T08:33:16.193Z,1000.5
2023-11-08T08:34:30.832Z,1000.5
2023-11-08T08:36:01.347Z,1000.5
2023-11-08T08:37:31.859Z,1000.5
2023-11-08T08:39:02.372Z,1000.5
2023-11-08T08:40:32.879Z,1000.5
2023-11-08T08:42:03.394Z,1000.6
2023-11-08T08:43:33.904Z,1000.6
2023-11-08T08:45:04.422Z,1000.6
2023-11-08T08:46:34.938Z,1000.6
2023-11-08T08:48:05.443Z,1000.6
2023-11-08T08:49:20.523Z,1000.6
2023-11-08T08:50:35.592Z,1000.6
2023-11-08T08:52:06.107Z,1000.6
2023-11-08T08:53:36.618Z,1000.6
2023-11-08T08:55:07.123Z,1000.6
2023-11-08T08:56:37.640Z,1000.6
2023-11-08T08:58:08.151Z,1000.6
2023-11-08T08:59:38.661Z,1000.6
2023-11-08T09:01:09.176Z,1000.6
2023-11-08T09:02:39.693Z,1000.7
2023-11-08T09:04:10.205Z,1000.7
2023-11-08T09:05:25.279Z,1000.7
2023-11-08T09:06:40.351Z,1000.6
2023-11-08T09:08:10.861Z,1000.7
2023-11-08T09:09:41.369Z,1000.7
2023-11-08T09:11:11.882Z,1000.7
2023-11-08T09:12:42.398Z,1000.7
2023-11-08T09:14:12.913Z,1000.7
2023-11-08T09:15:43.420Z,1000.6
2023-11-08T09:17:13.932Z,1000.7
2023-11-08T09:18:44.451Z,1000.7
2023-11-08T09:20:14.961Z,1000.7
2023-11-08T09:24:15.618Z,1000.6
2023-11-08T09:27:16.644Z,1000.7
2023-11-08T09:38:49.858Z,1000.7
2023-11-08T09:41:50.886Z,1000.7
2023-11-08T09:43:21.402Z,1000.6
2023-11-08T09:44:51.911Z,1000.7
2023-11-08T09:50:53.959Z,1000.7
2023-11-08T09:52:24.472Z,1000.6
2023-11-08T09:53:39.547Z,1000.6
2023-11-08T09:59:26.150Z,1000.7
2023-11-08T10:00:56.667Z,1000.6
2023-11-08T10:02:27.180Z,1000.6
2023-11-08T10:03:57.686Z,1000.6
2023-11-08T10:10:58.405Z,1000.7
2023-11-08T10:17:00.459Z,1000.7
2023-11-08T10:23:02.500Z,1000.7
2023-11-08T10:38:07.610Z,1000.7
2023-11-08T10:46:37.917Z,1000.7
2023-11-08T10:52:39.964Z,1000.6
2023-11-08T10:55:40.989Z,1000.6
2023-11-08T11:01:43.031Z,1000.6
2023-11-08T11:09:33.843Z,1000.6
2023-11-08T11:10:49.819Z,1000.6
2023-11-08T11:19:52.884Z,1000.6
2023-11-08T11:37:26.265Z,1000.6
2023-11-08T11:39:44.090Z,1000.7
2023-11-08T11:44:01.091Z,1000.6
2023-11-08T11:59:06.208Z,1000.6
2023-11-08T12:23:14.403Z,1000.5
2023-11-08T12:32:17.472Z,1000.6
2023-11-08T12:41:20.545Z,1000.5
2023-11-08T12:53:24.643Z,1000.6
2023-11-08T12:56:25.664Z,1000.5
2023-11-08T13:02:27.708Z,1000.6
2023-11-08T13:04:47.189Z,1000.5
2023-11-08T13:06:03.168Z,1000.6
2023-11-08T13:32:39.614Z,1000.7
2023-11-08T13:36:13.418Z,1000.7
2023-11-08T13:45:16.483Z,1000.7
2023-11-08T14:05:07.691Z,1000.6
2023-11-08T14:06:23.671Z,1000.6
2023-11-08T14:12:25.711Z,1000.6
2023-11-08T14:18:27.760Z,1000.6
2023-11-08T14:24:29.805Z,1000.6
2023-11-08T14:27:30.833Z,1000.6
2023-11-08T14:30:31.858Z,1000.6
2023-11-08T14:33:32.881Z,1000.6
2023-11-08T14:36:33.902Z,1000.6
2023-11-08T14:39:34.929Z,1000.6
2023-11-08T14:42:35.956Z,1000.6
2023-11-08T14:45:36.979Z,1000.6
2023-11-08T14:51:39.024Z,1000.6
2023-11-08T14:54:40.050Z,1000.6
2023-11-08T15:04:17.555Z,1000.5
2023-11-08T15:10:19.601Z,1000.5
2023-11-08T15:27:52.986Z,1000.5
2023-11-08T15:30:10.813Z,1000.5
2023-11-08T15:37:28.839Z,1000.4
2023-11-08T15:43:30.880Z,1000.4
2023-11-08T15:46:31.908Z,1000.4
2023-11-08T15:49:32.928Z,1000.5
2023-11-08T16:00:21.063Z,1000.5
2023-11-08T16:04:38.125Z,1000.5
2023-11-08T16:07:39.146Z,1000.5
2023-11-08T16:10:40.164Z,1000.5
2023-11-08T16:13:41.187Z,1000.5
2023-11-08T16:22:44.258Z,1000.3
2023-11-08T16:40:50.399Z,1000.3
2023-11-08T16:43:51.428Z,1000.4
2023-11-08T16:46:52.449Z,1000.4
2023-11-08T16:49:53.469Z,1000.3
2023-11-08T16:52:54.495Z,1000.3
2023-11-08T17:17:04.358Z,1000.2
2023-11-08T17:20:05.377Z,1000.2
2023-11-08T17:29:41.236Z,1000.2
2023-11-08T17:35:43.281Z,1000.2
2023-11-08T17:41:45.332Z,1000.2
2023-11-08T17:44:46.352Z,1000.2
2023-11-08T17:53:16.656Z,1000.2
2023-11-08T17:56:50.460Z,1000.2
2023-11-08T17:59:51.493Z,1000.2
2023-11-08T18:05:53.542Z,1000.2
2023-11-08T18:08:54.559Z,1000.2
2023-11-08T18:11:55.589Z,1000.3
2023-11-08T18:17:57.630Z,1000.3
2023-11-08T18:23:59.681Z,1000.2
2023-11-08T18:36:03.773Z,1000.2
2023-11-08T18:45:06.846Z,1000.1
2023-11-08T19:09:16.708Z,999.9
2023-11-08T19:20:37.555Z,999.8
2023-11-08T19:39:59.729Z,999.6
2023-11-08T19:50:47.817Z,999.7
2023-11-08T19:55:04.872Z,999.8
2023-11-08T20:04:07.936Z,999.7
2023-11-08T20:16:12.030Z,999.5
2023-11-08T20:31:17.153Z,999.2
2023-11-08T20:37:19.202Z,999.1
2023-11-08T20:43:21.251Z,999.1
2023-11-08T20:45:40.688Z,999.1
2023-11-08T20:46:56.713Z,999.1
2023-11-08T21:13:33.163Z,999
2023-11-08T21:32:12.099Z,998.9
2023-11-08T21:35:13.117Z,998.8
2023-11-08T21:47:17.238Z,998.7
2023-11-08T21:56:20.302Z,998.5
2023-11-08T21:59:21.326Z,998.4
2023-11-08T22:14:26.448Z,998.2
2023-11-08T22:20:28.503Z,998.2
2023-11-08T22:26:30.550Z,998.1
2023-11-08T22:29:31.570Z,998
2023-11-08T22:32:32.594Z,998
2023-11-08T22:38:34.640Z,997.9
2023-11-08T22:40:54.077Z,997.8
2023-11-08T22:42:10.111Z,997.8
2023-11-08T22:45:11.126Z,997.7
2023-11-08T22:48:12.158Z,997.7
2023-11-08T23:02:44.509Z,997.6
2023-11-08T23:08:46.560Z,997.7
2023-11-08T23:11:04.331Z,997.7
2023-11-08T23:12:20.362Z,997.6
2023-11-08T23:30:26.507Z,997.4
2023-11-08T23:41:14.591Z,997.3
2023-11-08T23:48:32.674Z,997.2
2023-11-08T23:54:34.718Z,997.1
2023-11-08T23:57:35.742Z,997.1
